Hauptseite
METAR-TAF:

METAR-TAF

Flughäfen :

Cerklje ob Krki, Slowenien

Breite: 45-53-59N, Länge: 15-30-55E, Höhe: 157 m

Beobachtung

Neuester Wetterbericht von vor 29 Minuten, um 02:00 UTC
Wind 1 kt aus unterschiedlichen Richtungen
Temperatur 4°C
Luftfeuchtigkeit 87%
Luftdruck 1015 hPa
Sichtweite 10 km oder mehr

METAR: LJCE 250200Z AUTO VRB01KT 9999 NCD 04/02 Q1015

Zeit: 03:29 (02:29 UTC)

Prognose

Neuester Wetterbericht von vor 3 Stunden und 29 Minuten, um 23:00 UTC
Gültige Prognose vom 25 um 00 UTC bis 25 um 09 UTC
Wind 2 kt aus unterschiedlichen Richtungen
Sichtweite 10 km oder mehr
keine Wolken unter 1500 m und keine Kumulonimbus oder Gewitterwolken

TAF: LJCE 242300Z 2500/2509 VRB02KT CAVOK

Wetterbeobachtungen und Prognosen von mehr als 4000 Flughäfen (METAR und TAF Bericht).

Die verfügbaren Stationen werden durch gelbe und rote Markierungen auf der Karte dargestellt.

Führen Sie die Maus auf sie, um den Namen der Station zu sehen.

Darauf klicken, um die Beobachtung von Wetterbeobachtungen und Prognosen zu sehen.

Um die Karte zu ändern : klicken Sie auf den grünen Tasten mit einem schwarzen Kreuz Zum Vergrößern, auf den grünen Button mit einem Gedankenstrich zu verkleinern, oder auf die grünen Pfeile für benachbarte Karten.


METAR-TAF: